Time;durP1;ratioP1;P1;durP2;ratioP2;P2;SDS_P1;SDS_P2;PMS_P1;PMS_P2;Temp;Humidity;BMP_temperature;BMP_pressure;BME280_temperature;BME280_humidity;BME280_pressure;Samples;Min_cycle;Max_cycle;Signal;HPM_P1;HPM_P2
2021/01/13 00:01:10;;;;;;;1.10;0.90;;;;;;;-0.58;99.25;100021.81;4984139;28;20208;-72
2021/01/13 00:03:36;;;;;;;1.60;0.73;;;;;;;-0.57;99.00;100025.22;4989457;28;20201;-74
2021/01/13 00:06:02;;;;;;;1.40;0.70;;;;;;;-0.56;98.46;100029.53;4983636;28;20255;-72
2021/01/13 00:08:27;;;;;;;1.70;0.80;;;;;;;-0.55;98.79;100026.09;4986711;28;20284;-72
2021/01/13 00:10:53;;;;;;;3.57;0.80;;;;;;;-0.56;98.42;100026.97;4987872;28;20213;-72
2021/01/13 00:13:19;;;;;;;2.67;0.80;;;;;;;-0.52;98.00;100032.97;4988241;28;20213;-72
2021/01/13 00:15:45;;;;;;;2.13;0.93;;;;;;;-0.52;98.44;100032.97;4984557;28;20225;-73
2021/01/13 00:18:12;;;;;;;2.70;0.80;;;;;;;-0.54;98.70;100027.81;4987335;28;20232;-74
2021/01/13 00:20:38;;;;;;;1.00;0.90;;;;;;;-0.57;99.18;100036.31;4985044;28;20579;-72
2021/01/13 00:23:04;;;;;;;3.10;1.00;;;;;;;-0.57;99.35;100040.59;4986386;28;20212;-72
2021/01/13 00:25:30;;;;;;;2.93;1.20;;;;;;;-0.58;99.76;100042.31;4988590;28;20189;-75
2021/01/13 00:27:56;;;;;;;2.60;1.23;;;;;;;-0.59;99.63;100044.84;4988197;28;20220;-74
2021/01/13 00:30:22;;;;;;;1.93;1.00;;;;;;;-0.60;99.86;100043.13;4986224;28;20233;-72
2021/01/13 00:32:48;;;;;;;3.67;1.10;;;;;;;-0.60;100.00;100046.56;4984006;28;20268;-72
2021/01/13 00:35:16;;;;;;;1.70;1.07;;;;;;;-0.60;99.68;100051.69;4984707;28;20214;-72
2021/01/13 00:37:42;;;;;;;2.20;1.23;;;;;;;-0.60;99.79;100049.13;4985886;28;20736;-71
2021/01/13 00:40:09;;;;;;;3.47;1.10;;;;;;;-0.60;99.69;100051.69;4985322;28;20234;-72
2021/01/13 00:42:42;;;;;;;4.27;1.40;;;;;;;-0.60;99.89;100049.13;4985750;28;20205;-72
2021/01/13 00:45:09;;;;;;;3.57;1.40;;;;;;;-0.61;99.99;100054.22;4986584;28;20210;-71
2021/01/13 00:47:35;;;;;;;4.60;1.50;;;;;;;-0.59;99.71;100052.53;4987268;28;20201;-72
2021/01/13 00:50:01;;;;;;;2.60;1.40;;;;;;;-0.59;99.59;100058.50;4987879;28;20236;-73
2021/01/13 00:52:27;;;;;;;3.10;1.40;;;;;;;-0.60;99.86;100056.81;4985908;28;20200;-74
2021/01/13 00:54:53;;;;;;;3.83;1.30;;;;;;;-0.59;99.96;100070.44;4987677;28;20225;-71
2021/01/13 00:57:19;;;;;;;2.07;1.20;;;;;;;-0.58;100.00;100078.16;4985148;28;20614;-71
2021/01/13 00:59:45;;;;;;;2.30;1.30;;;;;;;-0.57;99.89;100079.00;4986103;28;20217;-72
2021/01/13 01:02:10;;;;;;;1.43;1.20;;;;;;;-0.58;99.95;100075.59;4982298;28;20881;-72
2021/01/13 01:04:36;;;;;;;2.53;1.30;;;;;;;-0.59;99.72;100083.25;4988303;28;20624;-71
2021/01/13 01:07:05;;;;;;;4.87;1.33;;;;;;;-0.59;99.85;100080.69;4983088;28;20675;-72
2021/01/13 01:09:31;;;;;;;5.13;1.57;;;;;;;-0.63;99.76;100077.25;4985570;28;20229;-72
2021/01/13 01:11:57;;;;;;;3.10;1.20;;;;;;;-0.65;99.90;100085.75;4983506;28;20788;-73
2021/01/13 01:14:23;;;;;;;1.43;1.30;;;;;;;-0.66;99.61;100086.59;4988442;28;20264;-72
2021/01/13 01:16:49;;;;;;;3.13;1.57;;;;;;;-0.66;99.81;100089.16;4983273;28;20202;-71
2021/01/13 01:19:15;;;;;;;3.63;1.50;;;;;;;-0.68;99.79;100096.81;4985858;28;20298;-72
2021/01/13 01:21:42;;;;;;;2.20;1.57;;;;;;;-0.68;99.85;100096.81;4986050;28;20576;-72
2021/01/13 01:24:09;;;;;;;3.07;1.73;;;;;;;-0.68;99.74;100099.38;4985353;28;20209;-72
2021/01/13 01:26:45;;;;;;;3.10;1.33;;;;;;;-0.68;99.76;100099.38;4985106;28;20609;-71
2021/01/13 01:29:11;;;;;;;3.23;1.57;;;;;;;-0.68;99.56;100098.53;4983473;28;20220;-72
2021/01/13 01:31:36;;;;;;;2.57;1.50;;;;;;;-0.68;99.51;100103.66;4984719;28;20279;-73
2021/01/13 01:34:03;;;;;;;2.97;1.33;;;;;;;-0.72;99.71;100102.75;4978846;28;20214;-74
2021/01/13 01:36:28;;;;;;;1.70;1.50;;;;;;;-0.72;99.30;100107.00;4987874;28;20237;-74
2021/01/13 01:38:54;;;;;;;2.30;1.47;;;;;;;-0.72;99.54;100110.44;4980690;28;20606;-73
2021/01/13 01:41:20;;;;;;;2.97;1.53;;;;;;;-0.73;99.91;100108.72;4984106;28;20207;-73
2021/01/13 01:43:50;;;;;;;3.23;2.03;;;;;;;-0.75;99.85;100107.00;4986630;28;20277;-71
2021/01/13 01:46:17;;;;;;;2.30;1.83;;;;;;;-0.76;99.94;100098.44;4986936;28;20209;-73
2021/01/13 01:48:50;;;;;;;3.10;1.97;;;;;;;-0.78;99.92;100113.75;4984907;28;20217;-73
2021/01/13 01:51:21;;;;;;;4.47;2.30;;;;;;;-0.78;99.38;100113.75;4984927;28;21449;-73
2021/01/13 01:54:02;;;;;;;4.17;2.40;;;;;;;-0.77;99.30;100109.53;4982106;28;20681;-74
2021/01/13 01:56:35;;;;;;;5.50;2.70;;;;;;;-0.82;99.59;100104.34;4982860;28;20225;-73
2021/01/13 01:59:04;;;;;;;3.60;2.37;;;;;;;-0.85;99.63;100111.13;4983011;28;20257;-74
2021/01/13 02:01:32;;;;;;;9.13;3.00;;;;;;;-0.92;99.89;100117.88;4991938;28;20915;-73
2021/01/13 02:04:06;;;;;;;5.03;2.53;;;;;;;-0.94;100.00;100109.31;4989548;28;20288;-73
2021/01/13 02:06:33;;;;;;;5.60;2.90;;;;;;;-0.93;100.00;100122.97;4983458;28;20205;-75
2021/01/13 02:08:59;;;;;;;7.70;3.23;;;;;;;-0.93;100.00;100108.47;4989909;28;20225;-75
2021/01/13 02:11:27;;;;;;;5.23;3.03;;;;;;;-0.92;100.00;100117.88;4992227;28;20622;-73
2021/01/13 02:13:53;;;;;;;5.17;3.00;;;;;;;-0.90;100.00;100110.22;4985973;28;20205;-74
2021/01/13 02:16:21;;;;;;;6.37;2.87;;;;;;;-0.89;100.00;100115.34;4989607;28;20232;-72
2021/01/13 02:18:49;;;;;;;3.97;2.50;;;;;;;-0.83;100.00;100122.22;4989297;28;20224;-73
2021/01/13 02:21:16;;;;;;;7.90;3.37;;;;;;;-0.83;100.00;100124.78;4985450;28;20227;-75
2021/01/13 02:23:48;;;;;;;6.57;3.33;;;;;;;-0.83;100.00;100117.97;4983026;28;20689;-73
2021/01/13 02:26:41;;;;;;;7.03;3.13;;;;;;;-0.82;100.00;100116.28;4990977;28;20197;-70
2021/01/13 02:29:25;;;;;;;6.50;3.93;;;;;;;-0.79;100.00;100114.63;4984941;28;20275;-71
2021/01/13 02:32:03;;;;;;;6.37;3.30;;;;;;;-0.75;100.00;100109.53;4992522;28;20258;-72
2021/01/13 02:34:42;;;;;;;5.43;3.30;;;;;;;-0.72;100.00;100115.56;4983397;28;20197;-72
2021/01/13 02:37:42;;;;;;;6.57;3.93;;;;;;;-0.70;99.75;100105.31;4983307;28;20633;-73
2021/01/13 02:40:12;;;;;;;9.50;4.33;;;;;;;-0.69;100.00;100104.47;4990258;28;20232;-72
2021/01/13 02:42:46;;;;;;;8.00;4.40;;;;;;;-0.68;99.71;100117.31;4987559;28;20694;-74
2021/01/13 02:45:17;;;;;;;7.10;3.37;;;;;;;-0.62;99.42;100126.75;4986303;28;20227;-73
2021/01/13 02:48:04;;;;;;;9.57;4.20;;;;;;;-0.63;99.40;100123.34;4990136;28;20273;-73
2021/01/13 02:50:31;;;;;;;5.63;3.13;;;;;;;-0.63;99.59;100127.63;4988701;28;20562;-73
2021/01/13 02:53:26;;;;;;;7.83;3.60;;;;;;;-0.63;98.99;100141.25;4989955;28;20206;-74
2021/01/13 02:56:04;;;;;;;8.90;4.23;;;;;;;-0.61;99.21;100118.25;4989422;28;20236;-73
2021/01/13 02:58:34;;;;;;;7.97;3.87;;;;;;;-0.61;99.12;100131.03;4983767;28;20213;-76
2021/01/13 03:01:02;;;;;;;6.87;3.70;;;;;;;-0.60;98.79;100136.19;4987141;28;20637;-74
2021/01/13 03:03:31;;;;;;;4.90;3.43;;;;;;;-0.61;98.97;100131.91;4988100;28;20205;-73
2021/01/13 03:06:03;;;;;;;8.40;4.27;;;;;;;-0.63;98.68;100133.59;4988876;28;20206;-73
2021/01/13 03:08:43;;;;;;;8.47;3.53;;;;;;;-0.64;98.18;100142.09;4989783;28;20208;-72
2021/01/13 03:11:12;;;;;;;12.13;4.10;;;;;;;-0.68;98.44;100140.34;4988121;28;20205;-72
2021/01/13 03:13:44;;;;;;;7.17;3.53;;;;;;;-0.70;99.16;100136.91;4987252;28;20197;-73
2021/01/13 03:16:11;;;;;;;7.50;3.77;;;;;;;-0.69;98.64;100141.19;4986365;28;20560;-74
2021/01/13 03:18:51;;;;;;;8.73;3.57;;;;;;;-0.64;98.23;100143.81;4989009;28;20678;-73
2021/01/13 03:21:19;;;;;;;4.43;3.13;;;;;;;-0.64;98.72;100136.97;4989082;28;20240;-73
2021/01/13 03:23:55;;;;;;;7.77;3.13;;;;;;;-0.65;98.19;100142.94;4987288;28;20205;-73
2021/01/13 03:26:27;;;;;;;6.97;3.13;;;;;;;-0.66;98.08;100135.25;4983657;28;20198;-73
2021/01/13 03:28:54;;;;;;;9.00;3.37;;;;;;;-0.68;98.29;100139.50;4985512;28;20235;-72
2021/01/13 03:31:26;;;;;;;9.30;3.77;;;;;;;-0.69;98.11;100127.53;4988562;28;20257;-75
2021/01/13 03:34:22;;;;;;;5.90;3.50;;;;;;;-0.68;98.29;100130.09;4984868;28;20211;-72
2021/01/13 03:36:57;;;;;;;6.93;2.87;;;;;;;-0.67;98.44;100133.50;4988149;28;20377;-73
2021/01/13 03:39:24;;;;;;;5.23;3.53;;;;;;;-0.68;98.83;100134.38;4984839;28;20230;-72
2021/01/13 03:42:06;;;;;;;5.60;3.20;;;;;;;-0.67;98.70;100136.06;4983755;28;20198;-73
2021/01/13 03:44:34;;;;;;;5.93;3.03;;;;;;;-0.70;99.10;100142.03;4986628;28;20208;-72
2021/01/13 03:47:32;;;;;;;4.63;3.03;;;;;;;-0.72;99.08;100135.16;4988979;28;20244;-72
2021/01/13 03:50:09;;;;;;;8.50;3.23;;;;;;;-0.72;98.99;100140.28;4983623;28;20679;-74
2021/01/13 03:52:39;;;;;;;6.53;3.10;;;;;;;-0.73;99.21;100139.44;4978844;28;20201;-72
2021/01/13 03:55:07;;;;;;;4.23;2.73;;;;;;;-0.72;99.08;100138.59;4984420;28;20544;-74
2021/01/13 03:57:52;;;;;;;5.60;3.23;;;;;;;-0.70;98.76;100142.03;4984412;28;20692;-75
2021/01/13 04:00:21;;;;;;;6.00;2.90;;;;;;;-0.66;98.37;100140.38;4986360;28;20602;-73
2021/01/13 04:03:05;;;;;;;4.33;2.70;;;;;;;-0.65;98.65;100144.63;4988699;28;20225;-73
2021/01/13 04:05:35;;;;;;;8.20;3.30;;;;;;;-0.67;98.63;100144.66;4987155;28;20239;-72
2021/01/13 04:08:04;;;;;;;7.10;2.53;;;;;;;-0.67;98.91;100152.31;4987957;28;20208;-73
2021/01/13 04:10:30;;;;;;;7.00;2.63;;;;;;;-0.68;98.61;100150.59;4985129;28;20222;-73
2021/01/13 04:12:58;;;;;;;5.67;2.67;;;;;;;-0.67;98.72;100154.00;4988398;28;20209;-74
2021/01/13 04:15:35;;;;;;;8.77;2.40;;;;;;;-0.67;98.85;100149.75;4985722;28;20897;-73
2021/01/13 04:18:04;;;;;;;9.90;2.70;;;;;;;-0.68;98.80;100149.75;4984449;28;20204;-72
2021/01/13 04:20:31;;;;;;;4.90;2.53;;;;;;;-0.65;98.00;100147.19;4984853;28;20236;-74
2021/01/13 04:22:57;;;;;;;4.90;2.60;;;;;;;-0.64;98.18;100162.56;4984432;28;20189;-72
2021/01/13 04:25:24;;;;;;;7.13;2.80;;;;;;;-0.63;97.91;100146.38;4985152;28;20216;-73
2021/01/13 04:27:50;;;;;;;4.17;2.63;;;;;;;-0.63;98.32;100148.09;4987396;28;20212;-72
2021/01/13 04:30:17;;;;;;;4.87;2.27;;;;;;;-0.62;98.42;100144.69;4983166;28;20232;-73
2021/01/13 04:32:44;;;;;;;3.30;2.07;;;;;;;-0.60;97.84;100148.09;4986517;28;20216;-73
2021/01/13 04:35:12;;;;;;;8.73;2.57;;;;;;;-0.59;98.19;100160.94;4985677;28;20217;-73
2021/01/13 04:37:40;;;;;;;6.67;2.43;;;;;;;-0.57;97.76;100164.38;4988622;28;20224;-73
2021/01/13 04:40:29;;;;;;;4.13;2.03;;;;;;;-0.57;98.31;100158.41;4984759;28;20767;-73
2021/01/13 04:43:00;;;;;;;5.30;2.30;;;;;;;-0.57;98.40;100156.69;4985062;28;20210;-73
2021/01/13 04:45:35;;;;;;;3.73;2.10;;;;;;;-0.56;98.24;100162.69;4988047;28;20310;-72
2021/01/13 04:48:04;;;;;;;5.07;2.80;;;;;;;-0.56;98.55;100157.56;4986778;28;20845;-71
2021/01/13 04:50:34;;;;;;;6.23;2.07;;;;;;;-0.53;98.18;100149.03;4986152;28;20226;-72
2021/01/13 04:53:07;;;;;;;3.30;2.00;;;;;;;-0.53;98.29;100151.59;4987237;28;20256;-71
2021/01/13 04:55:44;;;;;;;5.83;2.03;;;;;;;-0.56;98.55;100149.88;4984914;28;20579;-74
2021/01/13 04:59:07;;;;;;;5.13;2.37;;;;;;;-0.59;98.54;100153.25;4984381;28;20201;-71
2021/01/13 05:02:07;;;;;;;4.47;2.20;;;;;;;-0.55;98.21;100148.19;4983243;28;20209;-71
2021/01/13 05:04:55;;;;;;;6.20;2.43;;;;;;;-0.55;98.37;100149.03;4983760;28;20206;-73
2021/01/13 05:07:34;;;;;;;4.30;2.00;;;;;;;-0.55;98.19;100150.72;4984992;28;20296;-70
2021/01/13 05:10:03;;;;;;;4.90;2.20;;;;;;;-0.52;97.90;100166.16;4986175;28;20228;-73
2021/01/13 05:12:45;;;;;;;5.67;2.53;;;;;;;-0.50;98.02;100161.91;4983761;28;20209;-70
2021/01/13 05:15:14;;;;;;;5.23;2.57;;;;;;;-0.49;97.42;100161.91;4983908;28;20233;-71
2021/01/13 05:17:57;;;;;;;5.47;2.50;;;;;;;-0.48;97.58;100150.81;4985456;28;20213;-72
2021/01/13 05:20:24;;;;;;;2.77;2.20;;;;;;;-0.46;97.33;100159.41;4985986;28;20236;-70
2021/01/13 05:22:53;;;;;;;4.50;2.40;;;;;;;-0.46;97.63;100158.50;4986286;28;20229;-72
2021/01/13 05:25:41;;;;;;;5.97;2.20;;;;;;;-0.45;97.45;100153.41;4987787;28;20547;-72
2021/01/13 05:28:09;;;;;;;4.17;1.97;;;;;;;-0.50;97.87;100146.53;4985006;28;20213;-71
2021/01/13 05:30:37;;;;;;;5.83;2.20;;;;;;;-0.51;98.13;100155.03;4984565;28;20241;-70
2021/01/13 05:33:07;;;;;;;5.70;2.20;;;;;;;-0.53;97.92;100138.81;4982283;28;20209;-73
2021/01/13 05:35:36;;;;;;;4.70;2.33;;;;;;;-0.55;97.95;100143.91;4985659;28;20296;-74
2021/01/13 05:38:09;;;;;;;7.63;2.30;;;;;;;-0.56;97.98;100147.31;4985256;28;20205;-70
2021/01/13 05:40:46;;;;;;;8.50;2.30;;;;;;;-0.54;98.34;100158.44;4982650;28;20226;-72
2021/01/13 05:43:13;;;;;;;6.07;2.17;;;;;;;-0.53;97.91;100152.47;4984591;28;20201;-70
2021/01/13 05:45:40;;;;;;;2.60;2.00;;;;;;;-0.50;97.50;100160.19;4981229;28;20228;-71
2021/01/13 05:48:18;;;;;;;4.83;1.83;;;;;;;-0.48;97.19;100155.94;4982243;28;20678;-71
2021/01/13 05:50:44;;;;;;;3.93;2.10;;;;;;;-0.46;97.17;100153.38;4981020;28;20938;-71
2021/01/13 05:53:12;;;;;;;4.17;2.17;;;;;;;-0.47;97.46;100151.69;4984179;28;20210;-71
2021/01/13 05:55:46;;;;;;;3.03;2.07;;;;;;;-0.46;96.85;100161.97;4987874;28;20222;-72
2021/01/13 05:58:13;;;;;;;5.10;2.33;;;;;;;-0.45;96.93;100158.53;4980948;28;20564;-71
2021/01/13 06:00:39;;;;;;;4.30;2.27;;;;;;;-0.45;96.50;100155.13;4988165;28;20220;-72
2021/01/13 06:03:06;;;;;;;4.50;2.50;;;;;;;-0.42;95.73;100173.94;4980848;28;20198;-70
2021/01/13 06:05:34;;;;;;;6.63;2.10;;;;;;;-0.39;95.89;100180.78;4980519;28;20197;-71
2021/01/13 06:08:02;;;;;;;5.47;2.30;;;;;;;-0.38;95.59;100169.72;4979774;28;20449;-74
2021/01/13 06:10:32;;;;;;;5.27;2.10;;;;;;;-0.40;96.11;100174.81;4980791;28;20452;-75
2021/01/13 06:13:00;;;;;;;7.53;2.63;;;;;;;-0.40;95.36;100177.38;4984622;28;20646;-77
2021/01/13 06:15:27;;;;;;;4.43;2.17;;;;;;;-0.37;95.09;100173.97;4987070;28;20212;-73
2021/01/13 06:17:55;;;;;;;5.87;2.60;;;;;;;-0.37;94.93;100176.53;4985220;28;20561;-72
2021/01/13 06:20:22;;;;;;;5.40;2.40;;;;;;;-0.38;94.67;100177.41;4983682;28;20225;-74
2021/01/13 06:22:50;;;;;;;3.80;2.30;;;;;;;-0.42;95.19;100180.78;4984786;28;20208;-76
2021/01/13 06:25:27;;;;;;;4.00;2.27;;;;;;;-0.44;95.34;100175.63;4984928;28;20249;-72
2021/01/13 06:28:06;;;;;;;3.10;1.80;;;;;;;-0.48;95.40;100175.56;4983226;28;20597;-72
2021/01/13 06:30:33;;;;;;;3.87;2.27;;;;;;;-0.51;95.68;100173.84;4980109;28;20229;-73
2021/01/13 06:33:03;;;;;;;3.63;2.20;;;;;;;-0.50;95.76;100174.69;4980879;28;20205;-72
2021/01/13 06:36:03;;;;;;;3.17;2.17;;;;;;;-0.49;95.25;100178.97;4986001;28;20210;-72
2021/01/13 06:38:38;;;;;;;3.63;2.20;;;;;;;-0.48;95.12;100185.81;4984937;28;20209;-74
2021/01/13 06:41:04;;;;;;;5.03;2.47;;;;;;;-0.50;95.61;100187.50;4985161;28;20252;-74
2021/01/13 06:43:31;;;;;;;2.93;2.13;;;;;;;-0.48;95.19;100180.69;4985553;28;20201;-72
2021/01/13 06:45:57;;;;;;;5.73;2.30;;;;;;;-0.49;95.02;100192.66;4985517;28;20210;-73
2021/01/13 06:48:24;;;;;;;5.67;2.60;;;;;;;-0.48;95.02;100194.34;4989422;28;20762;-72
2021/01/13 06:50:56;;;;;;;5.97;2.20;;;;;;;-0.53;95.65;100183.19;4986063;28;20248;-73
2021/01/13 06:53:22;;;;;;;4.60;1.83;;;;;;;-0.57;95.72;100177.19;4989278;28;20209;-74
2021/01/13 06:55:48;;;;;;;4.90;1.90;;;;;;;-0.57;95.90;100176.31;4985927;28;20217;-72
2021/01/13 06:58:16;;;;;;;5.57;1.90;;;;;;;-0.60;96.26;100171.16;4987204;28;20225;-75
2021/01/13 07:00:44;;;;;;;2.57;1.87;;;;;;;-0.60;95.92;100182.28;4987784;28;20357;-72
2021/01/13 07:03:26;;;;;;;4.57;1.93;;;;;;;-0.59;96.34;100175.44;4990389;28;20206;-74
2021/01/13 07:05:52;;;;;;;3.67;1.87;;;;;;;-0.61;96.45;100177.13;4988286;28;20283;-73
2021/01/13 07:08:19;;;;;;;4.20;1.87;;;;;;;-0.61;96.50;100185.66;4988160;28;20209;-72
2021/01/13 07:10:45;;;;;;;3.13;1.73;;;;;;;-0.64;96.88;100183.06;4988674;28;20228;-72
2021/01/13 07:13:12;;;;;;;5.23;1.77;;;;;;;-0.64;96.94;100188.19;4988152;28;20572;-72
2021/01/13 07:15:39;;;;;;;2.53;1.60;;;;;;;-0.64;97.00;100195.03;4991986;28;20212;-72
2021/01/13 07:18:08;;;;;;;2.27;1.70;;;;;;;-0.65;96.73;100194.16;4986273;28;20201;-72
2021/01/13 07:20:38;;;;;;;5.80;2.03;;;;;;;-0.66;96.88;100200.13;4991298;28;20233;-71
2021/01/13 07:23:04;;;;;;;4.83;1.97;;;;;;;-0.63;96.72;100199.31;4988985;28;20201;-72
2021/01/13 07:25:30;;;;;;;4.93;1.77;;;;;;;-0.62;96.66;100201.88;4989326;28;20198;-72
2021/01/13 07:28:00;;;;;;;2.00;1.80;;;;;;;-0.61;96.95;100201.03;4988561;28;20205;-73
2021/01/13 07:30:30;;;;;;;3.17;2.30;;;;;;;-0.62;97.37;100193.31;4985258;28;20232;-73
2021/01/13 07:32:58;;;;;;;4.43;1.97;;;;;;;-0.63;97.13;100197.59;4984549;28;20213;-76
2021/01/13 07:35:30;;;;;;;2.37;1.77;;;;;;;-0.65;97.01;100191.59;4987203;28;20276;-74
2021/01/13 07:37:59;;;;;;;8.70;3.53;;;;;;;-0.65;97.38;100199.28;4985810;28;20197;-72
2021/01/13 07:40:33;;;;;;;4.67;2.37;;;;;;;-0.65;97.14;100190.72;4987876;28;20239;-72
2021/01/13 07:43:04;;;;;;;5.50;2.20;;;;;;;-0.65;97.18;100195.84;4987611;28;20263;-73
2021/01/13 07:45:37;;;;;;;4.97;2.03;;;;;;;-0.68;97.31;100186.44;4990536;28;20197;-72
2021/01/13 07:48:33;;;;;;;6.53;2.03;;;;;;;-0.71;97.44;100190.66;4985081;28;20212;-73
2021/01/13 07:51:07;;;;;;;4.00;2.50;;;;;;;-0.72;97.30;100189.81;4985210;28;20241;-72
2021/01/13 07:53:37;;;;;;;3.67;1.97;;;;;;;-0.72;97.30;100186.38;4981497;28;20215;-72
2021/01/13 07:56:05;;;;;;;3.93;2.40;;;;;;;-0.70;97.36;100189.81;4988252;28;20702;-73
2021/01/13 07:58:33;;;;;;;5.13;2.37;;;;;;;-0.68;97.25;100193.28;4986889;28;20221;-72
2021/01/13 08:01:11;;;;;;;5.53;2.10;;;;;;;-0.67;97.25;100189.84;4985981;28;20198;-72
2021/01/13 08:04:47;;;;;;;3.17;2.10;;;;;;;-0.63;97.22;100192.47;4986136;28;20193;-72
2021/01/13 08:07:16;;;;;;;3.80;1.73;;;;;;;-0.56;97.14;100190.84;4984654;28;20202;-72
2021/01/13 08:09:49;;;;;;;5.27;2.23;;;;;;;-0.51;97.01;100191.78;4987952;28;20701;-74
2021/01/13 08:13:07;;;;;;;2.97;2.00;;;;;;;-0.46;97.02;100194.38;4986745;28;20228;-72
2021/01/13 08:16:01;;;;;;;2.97;1.93;;;;;;;-0.40;96.24;100192.75;4986542;28;20686;-74
2021/01/13 08:18:58;;;;;;;3.90;1.67;;;;;;;-0.30;96.05;100195.41;4984234;28;20231;-75
2021/01/13 08:21:26;;;;;;;9.10;2.57;;;;;;;-0.27;96.12;100201.44;4986454;28;20225;-72
2021/01/13 08:23:59;;;;;;;3.97;1.90;;;;;;;-0.21;95.11;100203.22;4985090;28;20301;-73
2021/01/13 08:26:26;;;;;;;5.40;2.00;;;;;;;-0.15;95.04;100205.84;4989479;28;20569;-74
2021/01/13 08:28:56;;;;;;;8.93;2.13;;;;;;;-0.11;94.60;100199.88;4980441;28;20712;-73
2021/01/13 08:31:24;;;;;;;3.30;2.07;;;;;;;-0.07;94.42;100203.34;4985681;28;20662;-73
2021/01/13 08:34:02;;;;;;;8.27;2.20;;;;;;;-0.03;93.74;100207.69;4981545;28;20211;-73
2021/01/13 08:36:28;;;;;;;2.80;1.50;;;;;;;0.00;94.20;100210.28;4981546;28;20559;-75
2021/01/13 08:39:10;;;;;;;4.00;1.80;;;;;;;0.05;92.98;100211.16;4985109;28;20272;-73
2021/01/13 08:41:37;;;;;;;6.73;2.50;;;;;;;0.10;93.63;100211.22;4986108;28;20207;-72
2021/01/13 08:44:06;;;;;;;5.93;3.63;;;;;;;0.12;93.13;100209.53;4987482;28;21011;-71
2021/01/13 08:46:39;;;;;;;8.00;4.77;;;;;;;0.17;92.98;100215.56;4986524;28;20212;-74
2021/01/13 08:49:05;;;;;;;12.53;5.17;;;;;;;0.21;91.73;100219.84;4983448;28;20218;-71
2021/01/13 08:51:32;;;;;;;13.13;6.83;;;;;;;0.22;92.59;100213.91;4984472;28;20219;-71
2021/01/13 08:54:19;;;;;;;7.37;3.33;;;;;;;0.22;91.60;100216.47;4983020;28;20210;-74
2021/01/13 08:56:55;;;;;;;6.03;1.80;;;;;;;0.22;92.34;100221.59;4984847;28;20224;-72
2021/01/13 08:59:32;;;;;;;5.03;1.93;;;;;;;0.21;91.92;100216.44;4984099;28;20279;-75
2021/01/13 09:02:03;;;;;;;5.53;2.03;;;;;;;0.22;92.12;100225.88;4987862;28;20210;-73
2021/01/13 09:04:45;;;;;;;6.10;3.43;;;;;;;0.24;91.76;100212.19;4980634;28;20205;-72
2021/01/13 09:07:13;;;;;;;9.23;5.17;;;;;;;0.27;92.01;100211.38;4987141;28;20213;-71
2021/01/13 09:09:43;;;;;;;6.27;2.07;;;;;;;0.25;92.18;100210.53;4984233;28;20232;-72
2021/01/13 09:12:32;;;;;;;6.03;1.80;;;;;;;0.26;91.20;100212.22;4984705;28;20202;-72
2021/01/13 09:15:12;;;;;;;3.80;1.77;;;;;;;0.27;91.39;100208.81;4980890;28;20197;-73
2021/01/13 09:17:39;;;;;;;6.77;1.80;;;;;;;0.26;91.84;100213.06;4984237;28;20684;-72
2021/01/13 09:20:15;;;;;;;3.27;1.60;;;;;;;0.23;91.59;100220.75;4983582;28;20240;-72
2021/01/13 09:22:42;;;;;;;3.93;2.27;;;;;;;0.24;91.95;100222.47;4982196;28;20578;-72
2021/01/13 09:25:15;;;;;;;6.57;1.60;;;;;;;0.23;92.19;100214.75;4984910;28;20200;-71
2021/01/13 09:27:44;;;;;;;3.40;2.03;;;;;;;0.20;92.40;100209.63;4986680;28;20229;-71
2021/01/13 09:30:30;;;;;;;4.50;2.00;;;;;;;0.21;92.33;100214.72;4986243;28;20223;-71
2021/01/13 09:32:57;;;;;;;5.17;2.60;;;;;;;0.23;92.14;100214.75;4984916;28;20202;-71
2021/01/13 09:35:24;;;;;;;5.33;2.40;;;;;;;0.26;91.48;100213.06;4986125;28;20211;-71
2021/01/13 09:37:52;;;;;;;7.13;2.50;;;;;;;0.27;91.68;100211.38;4985717;28;20636;-71
2021/01/13 09:40:21;;;;;;;6.23;2.43;;;;;;;0.26;92.09;100200.25;4986249;28;20225;-73
2021/01/13 09:42:55;;;;;;;7.80;2.43;;;;;;;0.30;92.27;100206.25;4985471;28;20205;-72
2021/01/13 09:45:22;;;;;;;9.33;2.80;;;;;;;0.30;92.67;100201.13;4985133;28;20199;-74
2021/01/13 09:47:48;;;;;;;6.30;2.60;;;;;;;0.32;92.58;100197.75;4984450;28;20234;-74
2021/01/13 09:50:21;;;;;;;5.80;2.97;;;;;;;0.38;91.14;100202.91;4987034;28;20247;-71
2021/01/13 09:52:47;;;;;;;7.90;3.57;;;;;;;0.43;91.59;100200.41;4985407;28;20215;-71
2021/01/13 09:55:15;;;;;;;3.53;2.13;;;;;;;0.49;91.07;100207.28;4987332;28;20628;-71
2021/01/13 09:57:42;;;;;;;4.90;3.23;;;;;;;0.49;90.81;100204.72;4983933;28;20198;-72
2021/01/13 10:00:09;;;;;;;9.20;3.53;;;;;;;0.50;91.01;100207.31;4984913;28;20259;-70
2021/01/13 10:02:38;;;;;;;5.60;2.60;;;;;;;0.56;90.82;100199.69;4986245;28;20206;-75
2021/01/13 10:05:06;;;;;;;3.60;2.10;;;;;;;0.56;91.21;100197.09;4984739;28;20202;-73
2021/01/13 10:07:35;;;;;;;6.30;2.23;;;;;;;0.53;92.08;100191.09;4983407;28;20208;-71
2021/01/13 10:10:06;;;;;;;3.80;1.90;;;;;;;0.50;92.42;100189.34;4985927;28;20246;-71
2021/01/13 10:12:37;;;;;;;5.67;2.10;;;;;;;0.49;92.32;100177.38;4982072;28;20205;-71
2021/01/13 10:15:06;;;;;;;3.77;1.90;;;;;;;0.50;92.25;100181.66;4986444;28;20252;-74
2021/01/13 10:17:34;;;;;;;2.63;1.57;;;;;;;0.51;92.32;100172.25;4983900;28;20229;-73
2021/01/13 10:20:11;;;;;;;4.83;1.90;;;;;;;0.52;92.46;100172.25;4982195;28;20234;-73
2021/01/13 10:22:38;;;;;;;4.50;1.83;;;;;;;0.56;93.00;100175.69;4981759;28;20207;-71
2021/01/13 10:25:06;;;;;;;3.50;1.90;;;;;;;0.55;91.79;100176.56;4990262;28;20595;-71
2021/01/13 10:27:32;;;;;;;6.57;2.07;;;;;;;0.59;92.10;100162.91;4988634;28;20207;-71
2021/01/13 10:29:58;;;;;;;3.00;1.80;;;;;;;0.60;92.29;100166.31;4988741;28;20238;-72
2021/01/13 10:32:25;;;;;;;5.67;1.87;;;;;;;0.57;92.01;100162.88;4989391;28;20203;-71
2021/01/13 10:34:52;;;;;;;3.20;1.70;;;;;;;0.56;91.87;100162.88;4989801;28;20209;-71
2021/01/13 10:37:18;;;;;;;5.17;2.10;;;;;;;0.55;92.58;100161.19;4986447;28;20224;-74
2021/01/13 10:39:45;;;;;;;4.27;1.67;;;;;;;0.60;92.95;100154.38;4989610;28;20592;-74
2021/01/13 10:42:11;;;;;;;6.70;1.70;;;;;;;0.69;93.14;100156.16;4989492;28;20220;-71
2021/01/13 10:44:38;;;;;;;4.27;1.60;;;;;;;0.72;92.52;100156.13;4986027;28;20573;-71
2021/01/13 10:47:06;;;;;;;2.00;1.40;;;;;;;0.71;92.53;100152.72;4984592;28;20214;-70
2021/01/13 10:49:35;;;;;;;5.87;1.80;;;;;;;0.72;92.67;100158.72;4986699;28;20230;-72
2021/01/13 10:52:05;;;;;;;6.00;2.00;;;;;;;0.74;92.73;100151.91;4987217;28;20280;-70
2021/01/13 10:54:32;;;;;;;4.27;2.03;;;;;;;0.74;92.86;100146.78;4988357;28;20212;-71
2021/01/13 10:57:01;;;;;;;4.63;1.50;;;;;;;0.78;92.13;100138.22;4986892;28;20649;-73
2021/01/13 10:59:28;;;;;;;3.33;1.73;;;;;;;0.78;91.91;100137.38;4986021;28;20228;-73
2021/01/13 11:02:00;;;;;;;4.47;2.20;;;;;;;0.82;92.03;100132.25;4986405;28;20322;-73
2021/01/13 11:04:32;;;;;;;4.23;1.90;;;;;;;0.90;91.92;100134.88;4986199;28;20202;-71
2021/01/13 11:07:01;;;;;;;2.37;1.77;;;;;;;0.93;91.80;100133.19;4986944;28;20294;-75
2021/01/13 11:09:28;;;;;;;5.73;1.80;;;;;;;0.98;92.11;100129.78;4987271;28;20584;-72
2021/01/13 11:11:54;;;;;;;3.10;2.10;;;;;;;1.00;91.55;100121.22;4988558;28;20208;-74
2021/01/13 11:14:47;;;;;;;3.47;1.90;;;;;;;1.08;91.54;100116.13;4985421;28;20201;-72
2021/01/13 11:17:15;;;;;;;5.13;1.93;;;;;;;1.10;91.78;100106.72;4987730;28;20225;-71
2021/01/13 11:19:44;;;;;;;3.07;1.67;;;;;;;1.02;91.21;100110.97;4987346;28;20235;-71
2021/01/13 11:22:11;;;;;;;3.07;2.13;;;;;;;1.02;91.30;100113.53;4987955;28;20249;-71
2021/01/13 11:24:43;;;;;;;2.73;1.80;;;;;;;0.99;91.66;100096.41;4985195;28;20197;-73
2021/01/13 11:27:11;;;;;;;3.93;1.57;;;;;;;1.01;91.54;100104.13;4985208;28;20215;-72
2021/01/13 11:29:39;;;;;;;4.83;1.80;;;;;;;1.04;91.67;100105.00;4985406;28;20232;-73
2021/01/13 11:32:07;;;;;;;3.07;1.80;;;;;;;1.06;91.54;100105.00;4987309;28;20197;-73
2021/01/13 11:34:34;;;;;;;4.63;2.10;;;;;;;1.03;91.53;100112.69;4984405;28;20211;-71
2021/01/13 11:37:32;;;;;;;4.87;1.97;;;;;;;0.99;91.98;100100.69;4985622;28;20668;-74
2021/01/13 11:40:31;;;;;;;5.90;1.70;;;;;;;0.92;92.00;100100.66;4986363;28;20220;-72
2021/01/13 11:43:29;;;;;;;6.73;2.07;;;;;;;0.92;92.34;100095.53;4989634;28;20197;-71
2021/01/13 11:46:07;;;;;;;3.00;1.80;;;;;;;0.97;92.44;100084.41;4986144;28;20228;-72
2021/01/13 11:48:54;;;;;;;2.90;1.70;;;;;;;1.02;92.26;100091.31;4984555;28;20220;-74